Time;durP1;ratioP1;P1;durP2;ratioP2;P2;SDS_P1;SDS_P2;PMS_P1;PMS_P2;Temp;Humidity;BMP_temperature;BMP_pressure;BME280_temperature;BME280_humidity;BME280_pressure;Samples;Min_cycle;Max_cycle;Signal;HPM_P1;HPM_P2
2021/07/15 00:01:56;;;;;;;2.97;0.60;;;16.70;85.60;;;;;;6216990;23;20088;-74
2021/07/15 00:04:23;;;;;;;1.30;0.50;;;16.60;85.60;;;;;;6252605;23;20107;-74
2021/07/15 00:06:50;;;;;;;1.70;0.73;;;16.70;85.80;;;;;;6252412;23;20065;-76
2021/07/15 00:09:20;;;;;;;0.75;0.50;;;16.70;85.20;;;;;;6253284;23;20020;-76
2021/07/15 00:11:54;;;;;;;1.90;0.50;;;16.70;85.20;;;;;;6252087;23;20020;-76
2021/07/15 00:14:28;;;;;;;0.98;0.68;;;16.70;85.40;;;;;;6252016;23;20028;-76
2021/07/15 00:16:58;;;;;;;1.08;0.93;;;16.80;85.30;;;;;;6220427;23;20043;-75
2021/07/15 00:19:27;;;;;;;2.03;0.63;;;16.60;85.80;;;;;;6222750;23;20027;-76
2021/07/15 00:21:55;;;;;;;1.57;0.73;;;16.60;86.30;;;;;;6250019;23;20035;-76
2021/07/15 00:24:23;;;;;;;1.65;0.82;;;16.60;86.70;;;;;;6250669;23;20066;-76
2021/07/15 00:26:50;;;;;;;3.63;1.30;;;16.50;87.00;;;;;;6223305;23;20032;-76
2021/07/15 00:29:17;;;;;;;1.73;0.93;;;16.40;87.30;;;;;;6249752;23;20235;-76
2021/07/15 00:31:44;;;;;;;1.45;0.70;;;16.40;87.90;;;;;;6247009;23;20264;-76
2021/07/15 00:34:13;;;;;;;3.45;1.00;;;16.30;88.20;;;;;;6222826;23;20086;-76
2021/07/15 00:36:40;;;;;;;2.05;0.80;;;16.10;88.90;;;;;;6250577;23;20024;-76
2021/07/15 00:39:09;;;;;;;3.72;1.00;;;16.10;88.90;;;;;;6249007;23;20303;-76
2021/07/15 00:41:36;;;;;;;1.80;0.90;;;16.20;88.90;;;;;;6249664;23;20040;-76
2021/07/15 00:44:04;;;;;;;3.00;0.95;;;16.30;88.50;;;;;;6246366;23;20020;-76
2021/07/15 00:46:34;;;;;;;1.55;0.70;;;16.30;88.60;;;;;;6251877;23;20066;-76
2021/07/15 00:49:01;;;;;;;2.08;0.60;;;16.40;88.50;;;;;;6225038;23;20020;-76
2021/07/15 00:51:33;;;;;;;3.40;0.88;;;16.50;88.30;;;;;;6251192;23;20027;-75
2021/07/15 00:54:00;;;;;;;0.90;0.57;;;16.50;88.20;;;;;;6224740;23;20047;-75
2021/07/15 00:56:30;;;;;;;2.08;0.70;;;16.50;87.70;;;;;;6224909;23;20091;-76
2021/07/15 00:58:58;;;;;;;1.05;0.63;;;16.50;87.80;;;;;;6253216;23;20103;-76
2021/07/15 01:01:25;;;;;;;3.15;0.65;;;16.60;87.40;;;;;;6245955;23;20028;-76
2021/07/15 01:03:53;;;;;;;0.70;0.60;;;16.60;87.30;;;;;;6222938;23;20031;-76
2021/07/15 01:06:20;;;;;;;0.93;0.60;;;16.70;86.30;;;;;;6250197;23;20024;-76
2021/07/15 01:08:48;;;;;;;1.00;0.52;;;16.70;86.40;;;;;;6251831;23;20066;-76
2021/07/15 01:11:27;;;;;;;0.55;0.30;;;16.60;86.40;;;;;;6250978;23;20299;-76
2021/07/15 01:14:01;;;;;;;0.95;0.50;;;16.60;86.10;;;;;;6250655;23;20054;-76
2021/07/15 01:16:38;;;;;;;1.50;0.68;;;16.60;86.60;;;;;;6251357;23;20066;-75
2021/07/15 01:19:40;;;;;;;0.73;0.30;;;16.80;86.10;;;;;;6223633;23;20027;-76
2021/07/15 01:22:13;;;;;;;2.67;0.50;;;16.80;86.00;;;;;;6185670;23;20024;-76
2021/07/15 01:25:28;;;;;;;2.10;1.17;;;16.90;85.90;;;;;;6251512;23;20050;-76
2021/07/15 01:28:06;;;;;;;3.78;1.75;;;16.90;85.90;;;;;;6224836;23;20035;-76
2021/07/15 01:30:38;;;;;;;3.50;1.25;;;17.00;86.00;;;;;;6224641;23;20032;-76
2021/07/15 01:33:16;;;;;;;3.45;0.90;;;16.90;86.30;;;;;;6249563;23;20043;-76
2021/07/15 01:35:48;;;;;;;1.05;0.68;;;16.80;86.50;;;;;;6251946;23;20016;-76
2021/07/15 01:38:18;;;;;;;1.83;1.00;;;16.80;86.50;;;;;;6225261;23;20034;-76
2021/07/15 01:40:47;;;;;;;1.70;0.80;;;16.80;86.70;;;;;;6251878;23;20024;-76
2021/07/15 01:43:19;;;;;;;0.80;0.50;;;16.80;86.80;;;;;;6250982;23;20012;-75
2021/07/15 01:45:48;;;;;;;1.20;0.68;;;16.80;86.80;;;;;;6222445;23;20035;-75
2021/07/15 01:48:16;;;;;;;1.50;1.20;;;16.90;86.70;;;;;;6222162;23;20027;-75
2021/07/15 01:50:44;;;;;;;2.25;0.93;;;16.70;86.60;;;;;;6249479;23;20370;-75
2021/07/15 01:53:12;;;;;;;2.13;1.00;;;16.70;86.90;;;;;;6247365;23;20027;-75
2021/07/15 01:55:40;;;;;;;1.80;0.70;;;16.80;87.00;;;;;;6222476;23;20054;-75
2021/07/15 01:58:11;;;;;;;4.50;0.95;;;16.90;86.50;;;;;;6247753;23;20023;-75
2021/07/15 02:00:39;;;;;;;2.03;0.90;;;16.90;86.60;;;;;;6244711;23;20024;-75
2021/07/15 02:03:09;;;;;;;1.55;0.70;;;16.90;86.50;;;;;;6247797;23;20019;-75
2021/07/15 02:05:38;;;;;;;1.42;0.70;;;16.90;86.70;;;;;;6247666;23;20044;-75
2021/07/15 02:08:06;;;;;;;0.93;0.75;;;16.80;86.90;;;;;;6247967;23;20374;-75
2021/07/15 02:10:34;;;;;;;1.33;0.70;;;16.90;87.00;;;;;;6248385;23;20031;-75
2021/07/15 02:13:02;;;;;;;1.92;0.80;;;16.90;86.80;;;;;;6247583;23;20027;-75
2021/07/15 02:15:30;;;;;;;3.85;0.70;;;16.80;87.10;;;;;;6220642;23;20043;-75
2021/07/15 02:17:58;;;;;;;0.93;0.52;;;16.80;87.20;;;;;;6247653;23;20016;-75
2021/07/15 02:20:27;;;;;;;0.95;0.60;;;16.80;87.10;;;;;;6248893;23;20240;-74
2021/07/15 02:22:56;;;;;;;1.83;0.77;;;16.90;87.20;;;;;;6222098;23;20032;-74
2021/07/15 02:25:25;;;;;;;2.47;0.82;;;16.90;87.10;;;;;;6222743;23;20350;-75
2021/07/15 02:27:54;;;;;;;3.33;0.70;;;16.80;87.20;;;;;;6222430;23;20032;-75
2021/07/15 02:30:22;;;;;;;1.40;0.60;;;16.80;87.10;;;;;;6248316;23;20039;-75
2021/07/15 02:32:56;;;;;;;1.23;0.75;;;16.80;87.30;;;;;;6249115;23;20020;-75
2021/07/15 02:35:28;;;;;;;1.42;0.68;;;16.80;87.50;;;;;;6249813;23;20020;-75
2021/07/15 02:37:58;;;;;;;0.73;0.50;;;16.70;88.00;;;;;;6250308;23;20274;-75
2021/07/15 02:40:26;;;;;;;1.33;0.73;;;16.70;87.70;;;;;;6250044;23;20028;-74
2021/07/15 02:42:53;;;;;;;0.40;0.40;;;16.70;87.70;;;;;;6251402;23;20074;-75
2021/07/15 02:45:21;;;;;;;1.83;0.70;;;16.70;87.50;;;;;;6219906;23;20047;-75
2021/07/15 02:47:51;;;;;;;1.40;0.85;;;16.80;87.70;;;;;;6248238;23;20273;-75
2021/07/15 02:50:21;;;;;;;0.50;0.50;;;16.80;87.40;;;;;;6249131;23;20016;-76
2021/07/15 02:52:51;;;;;;;0.88;0.50;;;16.80;87.20;;;;;;6248881;23;20443;-75
2021/07/15 02:55:18;;;;;;;1.33;0.60;;;16.80;87.20;;;;;;6249577;23;20032;-75
2021/07/15 02:57:57;;;;;;;1.52;0.57;;;16.90;87.80;;;;;;6249380;23;20047;-75
2021/07/15 03:00:26;;;;;;;1.85;0.88;;;16.80;87.60;;;;;;6245617;23;20028;-75
2021/07/15 03:03:01;;;;;;;1.35;0.80;;;16.90;87.70;;;;;;6252151;23;20020;-76
2021/07/15 03:05:36;;;;;;;3.40;0.60;;;16.90;87.60;;;;;;6250185;23;20063;-76
2021/07/15 03:08:07;;;;;;;1.90;0.70;;;16.90;87.50;;;;;;6251469;23;20039;-75
2021/07/15 03:10:35;;;;;;;1.40;0.52;;;16.90;87.50;;;;;;6252137;23;20015;-76
2021/07/15 03:13:08;;;;;;;2.90;0.70;;;17.00;87.40;;;;;;6225385;23;20082;-76
2021/07/15 03:15:37;;;;;;;1.00;0.60;;;16.90;87.60;;;;;;6247761;23;20030;-76
2021/07/15 03:18:06;;;;;;;3.45;1.10;;;16.90;87.60;;;;;;6249068;23;20024;-76
2021/07/15 03:20:37;;;;;;;2.92;0.77;;;16.90;87.50;;;;;;6249688;23;20014;-76
2021/07/15 03:23:08;;;;;;;0.88;0.52;;;16.90;87.40;;;;;;6245944;23;20251;-75
2021/07/15 03:25:36;;;;;;;4.30;1.15;;;16.90;87.60;;;;;;6250707;23;20117;-76
2021/07/15 03:28:10;;;;;;;7.20;0.90;;;16.80;87.90;;;;;;6225802;23;20243;-75
2021/07/15 03:30:38;;;;;;;1.20;0.70;;;16.80;87.90;;;;;;6223531;23;20090;-75
2021/07/15 03:33:07;;;;;;;3.05;0.50;;;16.80;87.90;;;;;;6253479;23;20020;-75
2021/07/15 03:35:34;;;;;;;4.15;0.45;;;16.90;87.80;;;;;;6223615;23;20304;-75
2021/07/15 03:38:04;;;;;;;1.65;0.73;;;16.90;87.50;;;;;;6223830;23;20035;-76
2021/07/15 03:40:32;;;;;;;;;;;17.00;86.80;;;;;;6251552;23;20339;-75
2021/07/15 03:42:59;;;;;;;3.10;0.43;;;16.90;86.40;;;;;;6249750;23;19935;-75
2021/07/15 03:45:27;;;;;;;2.45;0.50;;;17.00;86.20;;;;;;6222494;23;20353;-76
2021/07/15 03:47:56;;;;;;;1.17;0.50;;;17.00;86.00;;;;;;6250823;23;20016;-75
2021/07/15 03:50:25;;;;;;;2.83;0.38;;;16.90;86.00;;;;;;6223017;23;20079;-75
2021/07/15 03:52:53;;;;;;;0.43;0.30;;;16.90;86.30;;;;;;6249848;23;20012;-75
2021/07/15 03:55:26;;;;;;;1.25;0.40;;;16.90;86.20;;;;;;6244423;23;20280;-75
2021/07/15 03:57:54;;;;;;;1.13;0.40;;;16.90;86.00;;;;;;6250058;23;20016;-75
2021/07/15 04:00:23;;;;;;;1.25;0.50;;;16.90;86.00;;;;;;6243993;23;20370;-75
2021/07/15 04:02:54;;;;;;;2.67;0.40;;;16.70;86.20;;;;;;6248627;23;20548;-75
2021/07/15 04:05:24;;;;;;;1.58;1.02;;;16.60;86.70;;;;;;6251822;23;20134;-76
2021/07/15 04:07:53;;;;;;;1.15;0.50;;;16.50;87.20;;;;;;6250985;23;20023;-76
2021/07/15 04:10:21;;;;;;;2.08;0.50;;;16.40;87.60;;;;;;6250505;23;20361;-75
2021/07/15 04:12:52;;;;;;;1.02;0.40;;;16.40;87.50;;;;;;6248702;23;20035;-76
2021/07/15 04:15:21;;;;;;;0.70;0.40;;;16.40;87.40;;;;;;6252202;23;20016;-77
2021/07/15 04:17:50;;;;;;;1.00;0.47;;;16.50;87.30;;;;;;6226800;23;20047;-77
2021/07/15 04:20:21;;;;;;;0.95;0.40;;;16.50;87.40;;;;;;6251372;23;20066;-77
2021/07/15 04:22:51;;;;;;;2.92;0.47;;;16.50;87.30;;;;;;6251221;23;20020;-76
2021/07/15 04:25:20;;;;;;;3.05;0.50;;;16.50;87.20;;;;;;6224510;23;20253;-77
2021/07/15 04:27:51;;;;;;;0.53;0.43;;;16.60;87.00;;;;;;6253317;23;20016;-77
2021/07/15 04:30:20;;;;;;;1.13;0.40;;;16.60;87.10;;;;;;6224142;23;20035;-76
2021/07/15 04:32:51;;;;;;;0.73;0.50;;;16.60;87.00;;;;;;6252871;23;20206;-77
2021/07/15 04:35:19;;;;;;;1.27;0.50;;;16.60;86.60;;;;;;6225822;23;20319;-77
2021/07/15 04:37:48;;;;;;;1.23;0.50;;;16.70;86.40;;;;;;6252506;23;20050;-76
2021/07/15 04:40:19;;;;;;;0.80;0.40;;;16.80;86.30;;;;;;6222998;23;20052;-76
2021/07/15 04:42:50;;;;;;;0.88;0.50;;;16.90;86.20;;;;;;6251640;23;20027;-77
2021/07/15 04:45:19;;;;;;;2.08;0.50;;;16.90;86.20;;;;;;6250200;23;20024;-77
2021/07/15 04:47:48;;;;;;;2.97;0.45;;;17.00;86.20;;;;;;6250577;23;20028;-76
2021/07/15 04:50:16;;;;;;;1.75;0.45;;;17.10;85.30;;;;;;6219240;23;20091;-76
2021/07/15 04:52:44;;;;;;;0.93;0.40;;;17.10;84.70;;;;;;6250810;23;20378;-77
2021/07/15 04:55:14;;;;;;;3.15;0.57;;;17.10;85.30;;;;;;6250282;23;20023;-77
2021/07/15 04:57:42;;;;;;;;;;;17.20;84.90;;;;;;6253811;23;20023;-77
2021/07/15 05:00:11;;;;;;;3.47;0.60;;;17.30;84.70;;;;;;6218833;23;20143;-76
2021/07/15 05:02:40;;;;;;;1.83;0.40;;;17.40;84.10;;;;;;6250200;23;20012;-76
2021/07/15 05:05:09;;;;;;;0.73;0.38;;;17.40;84.00;;;;;;6250860;23;20773;-75
2021/07/15 05:07:37;;;;;;;1.50;0.40;;;17.60;84.00;;;;;;6250628;23;20024;-75
2021/07/15 05:10:05;;;;;;;1.00;0.40;;;17.60;83.70;;;;;;6225803;23;20048;-76
2021/07/15 05:12:33;;;;;;;0.95;0.43;;;17.70;83.60;;;;;;6250157;23;20040;-75
2021/07/15 05:15:01;;;;;;;1.67;0.55;;;17.70;83.70;;;;;;6253489;23;20032;-76
2021/07/15 05:17:31;;;;;;;1.50;0.50;;;17.70;83.70;;;;;;6252714;23;20066;-75
2021/07/15 05:19:59;;;;;;;1.20;0.50;;;17.90;83.00;;;;;;6250075;23;20070;-75
2021/07/15 05:22:28;;;;;;;0.57;0.40;;;17.90;82.40;;;;;;6249426;23;20316;-75
2021/07/15 05:24:55;;;;;;;8.90;0.90;;;18.10;82.60;;;;;;6248487;23;20079;-75
2021/07/15 05:27:22;;;;;;;2.47;0.60;;;18.10;82.00;;;;;;6222377;23;20355;-75
2021/07/15 05:29:49;;;;;;;2.95;0.82;;;18.20;81.60;;;;;;6250167;23;20031;-75
2021/07/15 05:32:16;;;;;;;1.25;0.50;;;18.30;81.80;;;;;;6249598;23;20358;-75
2021/07/15 05:34:44;;;;;;;1.20;0.70;;;18.20;80.80;;;;;;6249177;23;20213;-75
2021/07/15 05:37:13;;;;;;;1.20;0.80;;;18.20;80.50;;;;;;6224433;23;20094;-76
2021/07/15 05:39:43;;;;;;;1.17;0.75;;;18.20;81.00;;;;;;6249793;23;20059;-75
2021/07/15 05:42:11;;;;;;;1.85;0.90;;;18.30;80.80;;;;;;6249453;23;20319;-76
2021/07/15 05:44:38;;;;;;;1.38;0.95;;;18.30;80.80;;;;;;6245811;23;20374;-77
2021/07/15 05:47:07;;;;;;;1.83;1.05;;;18.30;80.70;;;;;;6248721;23;20032;-76
2021/07/15 05:49:35;;;;;;;1.10;0.67;;;18.50;80.30;;;;;;6248615;23;20055;-76
2021/07/15 05:52:03;;;;;;;3.40;1.15;;;18.50;80.30;;;;;;6247304;23;20024;-76
2021/07/15 05:54:31;;;;;;;1.65;0.88;;;18.50;80.10;;;;;;6249715;23;20335;-76
2021/07/15 05:56:59;;;;;;;1.98;0.70;;;18.60;79.70;;;;;;6224025;23;20594;-76
2021/07/15 05:59:26;;;;;;;1.67;0.70;;;18.60;80.10;;;;;;6222040;23;20265;-76
2021/07/15 06:01:53;;;;;;;1.20;0.90;;;18.60;79.90;;;;;;6244115;23;20023;-77
2021/07/15 06:04:20;;;;;;;2.25;0.90;;;18.50;79.70;;;;;;6222844;23;20273;-77
2021/07/15 06:06:48;;;;;;;1.27;0.80;;;18.50;79.30;;;;;;6222689;23;20209;-77
2021/07/15 06:09:15;;;;;;;1.23;0.60;;;18.60;79.50;;;;;;6250635;23;20137;-76
2021/07/15 06:11:43;;;;;;;0.98;0.60;;;18.60;80.00;;;;;;6223997;23;20048;-76
2021/07/15 06:14:10;;;;;;;1.63;0.80;;;18.60;79.10;;;;;;6250249;23;20046;-76
2021/07/15 06:16:38;;;;;;;2.33;0.70;;;18.60;79.20;;;;;;6224579;23;20024;-76
2021/07/15 06:19:05;;;;;;;3.10;0.98;;;18.60;79.00;;;;;;6226059;23;20362;-76
2021/07/15 06:21:32;;;;;;;1.95;0.90;;;18.60;79.00;;;;;;6224729;23;20020;-76
2021/07/15 06:23:59;;;;;;;1.65;1.00;;;18.70;78.40;;;;;;6253551;23;20040;-77
2021/07/15 06:26:27;;;;;;;1.55;0.88;;;18.70;78.30;;;;;;6253491;23;20023;-76
2021/07/15 06:28:55;;;;;;;2.50;1.42;;;18.70;78.50;;;;;;6253849;23;20023;-77
2021/07/15 06:31:25;;;;;;;2.30;1.08;;;18.90;78.40;;;;;;6226717;23;20037;-77
2021/07/15 06:33:52;;;;;;;4.95;1.52;;;19.20;77.60;;;;;;6253663;23;20068;-76
2021/07/15 06:36:20;;;;;;;1.80;1.13;;;19.30;77.30;;;;;;6227305;23;20020;-77
2021/07/15 06:38:47;;;;;;;2.22;1.48;;;19.20;76.20;;;;;;6254605;23;20334;-77
2021/07/15 06:41:16;;;;;;;2.28;1.23;;;19.10;76.30;;;;;;6252425;23;20220;-77
2021/07/15 06:43:43;;;;;;;2.50;1.30;;;19.30;77.00;;;;;;6253745;23;20019;-77
2021/07/15 06:46:12;;;;;;;3.13;1.45;;;19.40;77.00;;;;;;6249194;23;20425;-76
2021/07/15 06:48:39;;;;;;;6.05;1.08;;;19.60;77.10;;;;;;6253307;23;20035;-76
2021/07/15 06:51:08;;;;;;;2.35;1.05;;;19.70;76.60;;;;;;6226672;23;20253;-77
2021/07/15 06:53:35;;;;;;;2.15;0.90;;;19.80;76.00;;;;;;6253396;23;20243;-77
2021/07/15 06:56:02;;;;;;;1.92;1.10;;;20.20;75.50;;;;;;6226921;23;20028;-77
2021/07/15 06:58:30;;;;;;;2.15;1.20;;;20.50;74.10;;;;;;6252902;23;20239;-76
2021/07/15 07:00:58;;;;;;;2.17;1.00;;;20.30;73.40;;;;;;6245738;23;20032;-76
2021/07/15 07:03:27;;;;;;;2.22;1.10;;;20.30;73.10;;;;;;6253080;23;20119;-77
2021/07/15 07:05:55;;;;;;;2.42;1.20;;;20.60;73.10;;;;;;6251494;23;20040;-76
2021/07/15 07:08:22;;;;;;;2.22;1.13;;;20.60;72.80;;;;;;6253835;23;20032;-76
2021/07/15 07:10:49;;;;;;;2.15;1.25;;;20.80;72.20;;;;;;6224873;23;20050;-76
2021/07/15 07:13:16;;;;;;;1.83;1.05;;;20.90;72.30;;;;;;6247568;23;20051;-76
2021/07/15 07:15:44;;;;;;;2.47;1.00;;;20.90;71.80;;;;;;6248888;23;20219;-76
2021/07/15 07:18:11;;;;;;;2.03;1.00;;;20.90;71.70;;;;;;6223526;23;20020;-76
2021/07/15 07:20:39;;;;;;;5.45;1.10;;;20.70;72.40;;;;;;6251583;23;20327;-76
2021/07/15 07:23:08;;;;;;;8.95;1.02;;;20.70;72.60;;;;;;6251126;23;20024;-76
2021/07/15 07:25:35;;;;;;;4.15;0.80;;;20.80;72.70;;;;;;6224826;23;20211;-76
2021/07/15 07:28:02;;;;;;;3.35;0.85;;;20.90;72.30;;;;;;6224728;23;20047;-76
2021/07/15 07:30:31;;;;;;;1.77;0.80;;;20.80;72.60;;;;;;6222458;23;20205;-76
2021/07/15 07:32:59;;;;;;;0.75;0.60;;;20.80;72.50;;;;;;6252108;23;20051;-76
2021/07/15 07:35:26;;;;;;;1.33;0.90;;;20.70;72.40;;;;;;6250466;23;20346;-76
2021/07/15 07:37:55;;;;;;;1.15;0.60;;;20.70;72.30;;;;;;6251731;23;20016;-76
2021/07/15 07:40:22;;;;;;;3.27;0.90;;;21.00;71.60;;;;;;6250898;23;20031;-76
2021/07/15 07:42:49;;;;;;;2.28;0.73;;;20.90;71.20;;;;;;6224570;23;20200;-76
2021/07/15 07:45:17;;;;;;;3.28;0.82;;;21.00;70.60;;;;;;6248255;23;20281;-76
2021/07/15 07:47:45;;;;;;;1.00;0.70;;;21.30;70.70;;;;;;6250608;23;20039;-76
2021/07/15 07:50:14;;;;;;;1.20;0.70;;;21.50;70.20;;;;;;6250514;23;20016;-76
2021/07/15 07:52:42;;;;;;;1.23;0.80;;;21.70;68.30;;;;;;6246379;23;20024;-76
2021/07/15 07:55:12;;;;;;;4.60;0.90;;;21.60;68.40;;;;;;6250092;23;20027;-76
2021/07/15 07:57:39;;;;;;;3.22;0.73;;;21.90;68.40;;;;;;6251412;23;20251;-75
2021/07/15 08:00:09;;;;;;;0.98;0.60;;;22.20;66.70;;;;;;6249317;23;20039;-76
2021/07/15 08:02:56;;;;;;;1.70;0.88;;;21.90;65.20;;;;;;6250333;23;20266;-76
2021/07/15 08:05:25;;;;;;;4.35;1.40;;;21.90;66.20;;;;;;6249608;23;20023;-76
2021/07/15 08:07:52;;;;;;;1.38;0.70;;;21.80;65.90;;;;;;6223841;23;20074;-76
2021/07/15 08:10:21;;;;;;;1.33;0.60;;;21.90;65.50;;;;;;6250519;23;20054;-76
2021/07/15 08:12:52;;;;;;;1.10;0.80;;;21.60;66.30;;;;;;6250228;23;20044;-76
2021/07/15 08:15:19;;;;;;;1.30;0.63;;;21.30;67.40;;;;;;6223918;23;20024;-76
2021/07/15 08:17:47;;;;;;;11.40;1.48;;;21.10;68.30;;;;;;6249836;23;20036;-76
2021/07/15 08:20:14;;;;;;;0.75;0.70;;;20.80;69.30;;;;;;6250355;23;20259;-76
2021/07/15 08:22:42;;;;;;;2.03;0.60;;;20.60;69.20;;;;;;6223111;23;20019;-76
2021/07/15 08:25:10;;;;;;;0.80;0.65;;;20.80;68.80;;;;;;6249415;23;20051;-76
2021/07/15 08:27:39;;;;;;;1.30;0.70;;;21.10;68.30;;;;;;6250251;23;20028;-76
2021/07/15 08:30:09;;;;;;;1.38;0.70;;;21.60;67.90;;;;;;6249741;23;20229;-76
2021/07/15 08:32:36;;;;;;;;;;;21.70;65.90;;;;;;6250693;23;20035;-76
2021/07/15 08:35:05;;;;;;;0.80;0.47;;;22.00;66.40;;;;;;6226128;23;20265;-76
2021/07/15 08:37:32;;;;;;;1.80;0.73;;;22.60;65.10;;;;;;6250247;23;20347;-76
2021/07/15 08:40:00;;;;;;;0.98;0.55;;;23.00;63.40;;;;;;6251484;23;20027;-76
2021/07/15 08:42:29;;;;;;;1.00;0.50;;;22.70;63.30;;;;;;6251078;23;20016;-76
2021/07/15 08:45:02;;;;;;;0.93;0.75;;;22.40;63.20;;;;;;6251636;23;20027;-76
2021/07/15 08:47:31;;;;;;;1.33;0.43;;;22.40;63.10;;;;;;6248875;23;20024;-76
2021/07/15 08:49:58;;;;;;;2.58;0.60;;;22.30;63.50;;;;;;6251849;23;20035;-76
2021/07/15 08:52:26;;;;;;;0.40;0.40;;;22.60;64.20;;;;;;6223540;23;20044;-76
2021/07/15 08:55:00;;;;;;;1.08;0.40;;;22.90;63.10;;;;;;6250845;23;20063;-76
2021/07/15 08:57:28;;;;;;;0.82;0.50;;;23.00;62.20;;;;;;6251188;23;20024;-76
2021/07/15 08:59:57;;;;;;;1.05;0.40;;;22.90;62.80;;;;;;6248234;23;20020;-76
2021/07/15 09:02:25;;;;;;;1.42;0.40;;;22.70;61.90;;;;;;6217038;23;20043;-75
2021/07/15 09:04:52;;;;;;;0.70;0.50;;;22.60;63.20;;;;;;6249732;23;20247;-76
2021/07/15 09:07:20;;;;;;;2.65;0.47;;;22.60;63.10;;;;;;6249608;23;20078;-75
2021/07/15 09:09:57;;;;;;;4.28;0.60;;;23.00;61.60;;;;;;6253572;23;20024;-77
2021/07/15 09:12:24;;;;;;;0.40;0.40;;;22.90;63.10;;;;;;6226053;23;20026;-76
2021/07/15 09:14:53;;;;;;;22.63;4.00;;;22.90;62.60;;;;;;6250205;23;20027;-76
2021/07/15 09:17:28;;;;;;;12.25;1.83;;;22.60;61.70;;;;;;6249490;23;20023;-77
2021/07/15 09:19:56;;;;;;;0.85;0.50;;;23.00;62.30;;;;;;6223514;23;20028;-76
2021/07/15 09:22:23;;;;;;;1.08;0.70;;;23.40;60.20;;;;;;6251115;23;20031;-76
2021/07/15 09:24:51;;;;;;;0.85;0.35;;;23.80;60.00;;;;;;6248238;23;20024;-76
2021/07/15 09:27:24;;;;;;;0.30;0.30;;;23.60;60.20;;;;;;6253230;23;20127;-76
2021/07/15 09:30:09;;;;;;;0.52;0.40;;;23.30;60.60;;;;;;6198967;23;20019;-76
2021/07/15 09:32:50;;;;;;;0.50;0.47;;;23.30;60.30;;;;;;6223871;23;20020;-75
2021/07/15 09:35:27;;;;;;;0.50;0.32;;;23.50;61.10;;;;;;6249697;23;20123;-76
2021/07/15 09:37:55;;;;;;;0.63;0.57;;;24.10;60.50;;;;;;6249552;23;20023;-76
2021/07/15 09:40:38;;;;;;;0.90;0.50;;;24.50;57.70;;;;;;6225117;23;20019;-76
2021/07/15 09:43:16;;;;;;;2.10;0.82;;;24.20;57.30;;;;;;6250392;23;20311;-76
2021/07/15 09:45:44;;;;;;;0.90;0.52;;;24.40;58.40;;;;;;6250383;23;20050;-75
2021/07/15 09:48:18;;;;;;;0.82;0.40;;;24.40;57.30;;;;;;6226044;23;20046;-76
2021/07/15 09:50:46;;;;;;;0.45;0.30;;;24.00;57.70;;;;;;6248802;23;20039;-76
2021/07/15 09:53:16;;;;;;;0.55;0.45;;;23.70;59.00;;;;;;6249473;23;20035;-76
2021/07/15 09:55:43;;;;;;;;;;;23.80;59.30;;;;;;6253454;23;20303;-76
2021/07/15 09:58:12;;;;;;;0.73;0.52;;;24.00;59.20;;;;;;6249976;23;20247;-77
2021/07/15 10:00:41;;;;;;;1.17;0.70;;;23.90;59.10;;;;;;6248176;23;20016;-76
2021/07/15 10:03:10;;;;;;;1.13;0.63;;;23.80;59.20;;;;;;6252164;23;20046;-77
2021/07/15 10:05:49;;;;;;;2.17;1.00;;;23.90;59.20;;;;;;6253222;23;20031;-77
2021/07/15 10:08:24;;;;;;;1.15;0.60;;;24.30;57.90;;;;;;6252135;23;20417;-77
2021/07/15 10:10:51;;;;;;;0.50;0.40;;;24.40;57.70;;;;;;6253079;23;20031;-77
2021/07/15 10:13:20;;;;;;;0.90;0.40;;;24.50;57.40;;;;;;6224617;23;20035;-77
2021/07/15 10:15:48;;;;;;;1.90;0.60;;;24.60;57.20;;;;;;6251170;23;20035;-76
2021/07/15 10:18:33;;;;;;;1.30;0.70;;;24.70;56.60;;;;;;6251597;23;20024;-77
2021/07/15 10:21:03;;;;;;;1.17;0.68;;;24.40;57.00;;;;;;6226051;23;20211;-77
2021/07/15 10:23:37;;;;;;;0.65;0.60;;;24.40;56.90;;;;;;6251501;23;20024;-77
2021/07/15 10:26:10;;;;;;;1.05;0.60;;;24.30;55.80;;;;;;6225327;23;20036;-77
2021/07/15 10:28:38;;;;;;;0.98;0.68;;;24.90;54.20;;;;;;6252085;23;20072;-77
2021/07/15 10:31:07;;;;;;;1.35;0.73;;;25.10;54.20;;;;;;6251398;23;20032;-77
2021/07/15 10:33:35;;;;;;;0.87;0.60;;;26.00;52.80;;;;;;6251462;23;20023;-76
2021/07/15 10:36:13;;;;;;;1.00;0.40;;;27.10;49.30;;;;;;6225253;23;20462;-75
2021/07/15 10:38:51;;;;;;;0.70;0.50;;;26.80;50.20;;;;;;6249676;23;20035;-76
2021/07/15 10:41:20;;;;;;;0.98;0.60;;;27.00;49.80;;;;;;6251283;23;20251;-77
2021/07/15 10:43:49;;;;;;;0.57;0.43;;;27.50;48.80;;;;;;6251300;23;20028;-77
2021/07/15 10:46:16;;;;;;;1.00;0.50;;;27.00;48.30;;;;;;6249605;23;20020;-76
2021/07/15 10:48:47;;;;;;;1.48;0.50;;;26.30;51.00;;;;;;6246633;23;20035;-77
2021/07/15 10:51:16;;;;;;;1.00;0.60;;;26.20;51.30;;;;;;6248087;23;20219;-77
2021/07/15 10:53:44;;;;;;;0.93;0.50;;;26.50;50.50;;;;;;6249424;23;20039;-77
2021/07/15 10:56:16;;;;;;;1.48;0.60;;;26.10;50.70;;;;;;6218959;23;20259;-77
2021/07/15 10:58:45;;;;;;;0.40;0.40;;;27.50;47.60;;;;;;6248069;23;20016;-76
2021/07/15 11:01:13;;;;;;;2.97;0.80;;;28.10;47.10;;;;;;6217143;23;20039;-76
2021/07/15 11:03:41;;;;;;;1.38;0.80;;;29.30;44.20;;;;;;6219790;23;20224;-75
2021/07/15 11:06:08;;;;;;;3.10;0.67;;;30.40;42.00;;;;;;6248678;23;20035;-76
2021/07/15 11:09:00;;;;;;;0.80;0.60;;;31.30;40.10;;;;;;6245939;23;20653;-77
2021/07/15 11:11:36;;;;;;;0.82;0.57;;;31.40;39.20;;;;;;6243500;23;20062;-76
2021/07/15 11:14:05;;;;;;;0.63;0.47;;;32.10;36.80;;;;;;6252792;23;20028;-76
2021/07/15 11:16:50;;;;;;;1.15;0.50;;;31.80;37.70;;;;;;6250698;23;20019;-76
2021/07/15 11:20:03;;;;;;;1.33;0.60;;;30.60;38.90;;;;;;6249752;23;20039;-76
2021/07/15 11:22:43;;;;;;;1.63;0.60;;;29.90;40.00;;;;;;6184480;23;20082;-76
2021/07/15 11:25:14;;;;;;;1.60;0.60;;;30.20;39.60;;;;;;6251012;23;20019;-76
2021/07/15 11:27:46;;;;;;;0.90;0.50;;;29.40;40.20;;;;;;6249631;23;20016;-76
2021/07/15 11:30:28;;;;;;;0.88;0.50;;;28.80;41.90;;;;;;6250194;23;20208;-75
2021/07/15 11:32:58;;;;;;;0.88;0.43;;;28.20;43.60;;;;;;6252525;23;20255;-76
2021/07/15 11:35:33;;;;;;;0.80;0.50;;;27.90;44.10;;;;;;6253208;23;20077;-75
2021/07/15 11:38:09;;;;;;;0.77;0.50;;;27.60;44.90;;;;;;6251549;23;20092;-76
2021/07/15 11:40:48;;;;;;;0.73;0.60;;;27.20;44.60;;;;;;6253422;23;20028;-75
2021/07/15 11:43:29;;;;;;;0.52;0.43;;;27.30;46.00;;;;;;6253681;23;20205;-75
2021/07/15 11:46:13;;;;;;;1.33;0.57;;;27.30;45.70;;;;;;6253424;23;20058;-75
2021/07/15 11:49:07;;;;;;;1.05;0.70;;;27.30;46.10;;;;;;6228968;23;20082;-75
2021/07/15 11:51:40;;;;;;;0.63;0.50;;;26.80;46.50;;;;;;6255674;23;20205;-75
2021/07/15 11:54:15;;;;;;;1.02;0.60;;;26.50;47.20;;;;;;6255061;23;20316;-76
2021/07/15 11:56:48;;;;;;;1.00;0.70;;;26.00;48.50;;;;;;6258490;23;20012;-75
2021/07/15 11:59:34;;;;;;;1.33;0.55;;;25.60;49.00;;;;;;6226548;23;20027;-73
2021/07/15 12:02:09;;;;;;;1.88;0.68;;;25.30;49.30;;;;;;6248923;23;20028;-74
2021/07/15 12:05:13;;;;;;;1.08;0.70;;;25.20;50.20;;;;;;6256722;23;20312;-74
2021/07/15 12:07:45;;;;;;;1.23;0.60;;;25.30;51.80;;;;;;6254151;23;20030;-73
2021/07/15 12:10:19;;;;;;;10.35;1.23;;;25.10;54.00;;;;;;6228876;23;20223;-73
2021/07/15 12:12:48;;;;;;;1.90;0.82;;;25.10;54.30;;;;;;6223998;23;20273;-73
2021/07/15 12:15:20;;;;;;;1.80;0.82;;;25.10;54.60;;;;;;6254383;23;20018;-73
2021/07/15 12:17:49;;;;;;;2.92;1.00;;;25.00;56.30;;;;;;6254248;23;20197;-73
2021/07/15 12:20:17;;;;;;;2.33;0.70;;;25.10;56.10;;;;;;6226301;23;20271;-73
2021/07/15 12:22:51;;;;;;;3.03;0.88;;;25.10;56.50;;;;;;6252982;23;20027;-72
2021/07/15 12:25:20;;;;;;;2.13;0.70;;;25.10;56.20;;;;;;6225441;23;20036;-74
2021/07/15 12:27:52;;;;;;;3.22;0.80;;;25.20;55.80;;;;;;6251960;23;20032;-73
2021/07/15 12:30:24;;;;;;;0.63;0.43;;;25.10;55.50;;;;;;6252952;23;20032;-73
2021/07/15 12:33:00;;;;;;;1.67;0.85;;;25.10;55.70;;;;;;6227171;23;20133;-74
2021/07/15 12:35:30;;;;;;;3.17;0.93;;;24.90;56.20;;;;;;6253104;23;20068;-74
2021/07/15 12:38:15;;;;;;;1.05;0.50;;;24.80;56.70;;;;;;6225189;23;20078;-74
2021/07/15 12:40:43;;;;;;;3.70;0.90;;;24.90;56.50;;;;;;6252378;23;20039;-74
2021/07/15 12:43:19;;;;;;;1.13;0.73;;;25.10;56.40;;;;;;6250601;23;20042;-75
2021/07/15 12:45:48;;;;;;;0.95;0.63;;;25.40;56.90;;;;;;6225427;23;20016;-75
2021/07/15 12:48:17;;;;;;;1.35;0.63;;;25.50;55.30;;;;;;6247507;23;20024;-75
2021/07/15 12:50:45;;;;;;;1.42;0.90;;;25.40;55.30;;;;;;6224482;23;20028;-74
2021/07/15 12:53:25;;;;;;;1.67;0.65;;;25.20;55.70;;;;;;6222618;23;20028;-75
2021/07/15 12:55:58;;;;;;;1.13;0.50;;;25.30;55.70;;;;;;6224083;23;20082;-75
2021/07/15 12:58:27;;;;;;;3.53;0.80;;;25.20;56.10;;;;;;6251584;23;20023;-74
2021/07/15 13:01:02;;;;;;;2.22;0.65;;;25.00;56.70;;;;;;6246494;23;20016;-74
2021/07/15 13:03:29;;;;;;;6.20;2.03;;;25.10;56.20;;;;;;6250077;23;20027;-74
2021/07/15 13:05:56;;;;;;;3.55;1.63;;;25.30;56.70;;;;;;6250080;23;20027;-74